Volciha, Russia
Current Conditions -  °F | °C
As of 5:30 PM on Saturday 20 Dec 2014 (Local Time) from UASS Reporting Station
Clear Clear  
Wind Chill:   Ceiling: Unl
Heat Index: 21°   Visibility: 6mi
Dew Point: 10°   Wind: 18mph
Humidity: 63%   Direction: 170°S
Pressure: 30.39"   Gusts: NA
Location:  52.02°N, 80.37°E
Report Text: UASS 201030Z 17008MPS CAVOK M06/M12 Q1029 R26/42//55 NOSIG RMKQFE753/1005
Loading
Personal Weather Stations






























Interactive Weather Map New forecast layout! Learn more

10-Day Weather Forecast

Advertisements
Track Severe Weather on mobile